createdAt,value
2018-04-21T00:00:56.269Z,66.77
2018-04-21T00:01:56.258Z,66.68
2018-04-21T00:02:56.240Z,66.77
2018-04-21T00:03:56.237Z,66.77
2018-04-21T00:04:56.275Z,66.87
2018-04-21T00:05:56.206Z,66.58
2018-04-21T00:06:56.192Z,66.97
2018-04-21T00:07:56.183Z,66.77
2018-04-21T00:08:56.176Z,66.87
2018-04-21T00:09:56.157Z,67.45
2018-04-21T00:10:56.150Z,67.25
2018-04-21T00:11:56.141Z,67.54
2018-04-21T00:12:56.122Z,67.54
2018-04-21T00:13:56.117Z,67.83
2018-04-21T00:14:56.096Z,67.83
2018-04-21T00:15:56.088Z,67.64
2018-04-21T00:16:56.084Z,67.74
2018-04-21T00:17:56.236Z,67.74
2018-04-21T00:18:56.052Z,68.02
2018-04-21T00:19:56.036Z,68.41
2018-04-21T00:20:56.029Z,68.37
2018-04-21T00:21:56.016Z,69.08
2018-04-21T00:22:56.001Z,68.89
2018-04-21T00:23:55.987Z,68.79
2018-04-21T00:24:55.978Z,68.76
2018-04-21T00:25:55.965Z,68.95
2018-04-21T00:26:55.950Z,69.14
2018-04-21T00:27:55.940Z,69.53
2018-04-21T00:28:55.929Z,69.43
2018-04-21T00:29:55.915Z,69.53
2018-04-21T00:30:55.916Z,69.91
2018-04-21T00:31:55.902Z,70.49
2018-04-21T00:32:55.879Z,70.01
2018-04-21T00:33:56.037Z,70.01
2018-04-21T00:34:55.856Z,70.39
2018-04-21T00:35:55.853Z,70.39
2018-04-21T00:36:55.887Z,70.10
2018-04-21T00:37:55.818Z,70.55
2018-04-21T00:38:55.808Z,70.64
2018-04-21T00:39:55.794Z,70.49
2018-04-21T00:40:55.782Z,70.49
2018-04-21T00:41:55.902Z,71.06
2018-04-21T00:42:55.766Z,70.87
2018-04-21T00:43:55.745Z,70.87
2018-04-21T00:44:55.735Z,71.06
2018-04-21T00:45:55.724Z,70.78
2018-04-21T00:46:55.712Z,70.87
2018-04-21T00:47:55.704Z,71.16
2018-04-21T00:48:55.683Z,71.12
2018-04-21T00:49:55.681Z,71.25
2018-04-21T00:50:55.676Z,71.12
2018-04-21T00:51:55.649Z,71.12
2018-04-21T00:52:55.643Z,71.22
2018-04-21T00:53:55.623Z,71.70
2018-04-21T00:54:55.610Z,71.80
2018-04-21T00:55:55.597Z,71.03
2018-04-21T00:56:55.585Z,71.41
2018-04-21T00:57:55.571Z,71.12
2018-04-21T00:58:55.568Z,71.12
2018-04-21T00:59:55.552Z,71.12
2018-04-21T01:00:55.537Z,71.41
2018-04-21T01:01:55.521Z,71.70
2018-04-21T01:02:55.512Z,71.89
2018-04-21T01:03:55.496Z,71.98
2018-04-21T01:04:55.486Z,71.80
2018-04-21T01:05:55.471Z,71.89
2018-04-21T01:06:55.461Z,72.08
2018-04-21T01:07:55.447Z,72.56
2018-04-21T01:08:55.436Z,72.56
2018-04-21T01:09:55.427Z,72.72
2018-04-21T01:10:55.412Z,72.72
2018-04-21T01:11:55.407Z,73.04
2018-04-21T01:12:55.389Z,72.85
2018-04-21T01:13:55.375Z,72.85
2018-04-21T01:14:55.360Z,73.00
2018-04-21T01:15:55.351Z,73.10
2018-04-21T01:16:55.334Z,73.10
2018-04-21T01:17:55.334Z,73.10
2018-04-21T01:18:55.311Z,73.10
2018-04-21T01:19:55.299Z,73.58
2018-04-21T01:20:55.295Z,73.58
2018-04-21T01:21:55.271Z,73.58
2018-04-21T01:22:55.259Z,73.49
2018-04-21T01:23:55.248Z,73.87
2018-04-21T01:24:55.233Z,73.97
2018-04-21T01:25:55.224Z,73.77
2018-04-21T01:26:55.208Z,74.35
2018-04-21T01:27:55.196Z,74.26
2018-04-21T01:28:55.182Z,74.54
2018-04-21T01:29:55.170Z,74.44
2018-04-21T01:30:55.158Z,74.93
2018-04-21T01:31:55.148Z,74.73
2018-04-21T01:32:55.132Z,74.73
2018-04-21T01:33:55.134Z,75.21
2018-04-21T01:34:55.118Z,75.40
2018-04-21T01:35:55.098Z,75.31
2018-04-21T01:36:55.088Z,75.02
2018-04-21T01:37:55.067Z,75.40
2018-04-21T01:38:55.057Z,75.12
2018-04-21T01:39:55.049Z,75.31
2018-04-21T01:40:55.036Z,75.40
2018-04-21T01:41:55.019Z,75.18
2018-04-21T01:42:55.006Z,75.12
2018-04-21T01:43:55.014Z,74.98
2018-04-21T01:44:54.979Z,75.40
2018-04-21T01:45:54.966Z,75.75
2018-04-21T01:46:54.956Z,75.95
2018-04-21T01:47:54.940Z,75.95
2018-04-21T01:48:54.927Z,76.23
2018-04-21T01:49:54.916Z,76.52
2018-04-21T01:50:54.923Z,76.90
2018-04-21T01:51:54.887Z,76.42
2018-04-21T01:52:54.884Z,76.81
2018-04-21T01:53:54.881Z,77.09
2018-04-21T01:54:54.850Z,77.09
2018-04-21T01:55:54.837Z,77.48
2018-04-21T01:56:54.875Z,77.00
2018-04-21T01:57:54.810Z,77.29
2018-04-21T01:58:54.795Z,77.48
2018-04-21T01:59:54.784Z,77.29
2018-04-21T02:00:54.784Z,76.86
2018-04-21T02:01:54.759Z,77.63
2018-04-21T02:02:54.746Z,77.15
2018-04-21T02:03:54.737Z,77.15
2018-04-21T02:04:54.718Z,76.96
2018-04-21T02:05:54.706Z,77.34
2018-04-21T02:06:54.698Z,77.15
2018-04-21T02:07:54.685Z,77.53
2018-04-21T02:08:54.669Z,77.63
2018-04-21T02:09:54.755Z,77.44
2018-04-21T02:10:54.643Z,77.25
2018-04-21T02:11:54.628Z,77.53
2018-04-21T02:12:54.619Z,77.25
2018-04-21T02:13:54.604Z,77.25
2018-04-21T02:14:54.596Z,77.44
2018-04-21T02:15:54.575Z,77.34
2018-04-21T02:16:54.563Z,77.44
2018-04-21T02:17:54.563Z,77.25
2018-04-21T02:18:54.543Z,77.06
2018-04-21T02:19:54.522Z,77.34
2018-04-21T02:20:54.512Z,77.34
2018-04-21T02:21:54.501Z,77.15
2018-04-21T02:22:54.485Z,77.34
2018-04-21T02:23:54.468Z,77.15
2018-04-21T02:24:54.457Z,77.53
2018-04-21T02:25:54.535Z,77.50
2018-04-21T02:26:54.431Z,77.15
2018-04-21T02:27:54.416Z,77.21
2018-04-21T02:28:54.401Z,77.11
2018-04-21T02:29:54.388Z,77.40
2018-04-21T02:30:54.376Z,77.11
2018-04-21T02:31:54.365Z,77.31
2018-04-21T02:32:54.351Z,77.21
2018-04-21T02:33:54.332Z,77.31
2018-04-21T02:34:54.321Z,77.21
2018-04-21T02:35:54.310Z,76.92
2018-04-21T02:36:54.305Z,77.31
2018-04-21T02:37:54.280Z,77.40
2018-04-21T02:38:54.271Z,77.21
2018-04-21T02:39:54.255Z,77.40
2018-04-21T02:40:54.239Z,77.31
2018-04-21T02:41:54.230Z,77.31
2018-04-21T02:42:54.215Z,77.31
2018-04-21T02:43:54.211Z,77.31
2018-04-21T02:44:54.202Z,77.88
2018-04-21T02:45:54.175Z,77.88
2018-04-21T02:46:54.179Z,77.88
2018-04-21T02:47:54.149Z,77.59
2018-04-21T02:48:54.143Z,77.59
2018-04-21T02:49:54.169Z,77.88
2018-04-21T02:50:54.109Z,77.97
2018-04-21T02:51:54.101Z,78.55
2018-04-21T02:52:54.080Z,78.45
2018-04-21T02:53:54.071Z,78.36
2018-04-21T02:54:54.048Z,78.55
2018-04-21T02:55:54.044Z,78.64
2018-04-21T02:56:54.026Z,78.64
2018-04-21T02:57:54.008Z,78.51
2018-04-21T02:58:53.997Z,78.93
2018-04-21T02:59:53.984Z,78.99
2018-04-21T03:00:53.973Z,79.08
2018-04-21T03:01:53.962Z,79.51
2018-04-21T03:02:53.978Z,79.57
2018-04-21T03:03:53.927Z,79.18
2018-04-21T03:04:53.920Z,79.37
2018-04-21T03:05:53.925Z,79.28
2018-04-21T03:06:53.894Z,79.66
2018-04-21T03:07:53.873Z,79.28
2018-04-21T03:08:53.870Z,79.47
2018-04-21T03:09:53.847Z,79.37
2018-04-21T03:10:53.835Z,79.85
2018-04-21T03:11:53.820Z,79.57
2018-04-21T03:12:53.806Z,79.66
2018-04-21T03:13:53.790Z,79.85
2018-04-21T03:14:53.776Z,79.37
2018-04-21T03:15:53.764Z,79.37
2018-04-21T03:16:53.755Z,79.57
2018-04-21T03:17:53.744Z,79.37
2018-04-21T03:18:53.882Z,79.47
2018-04-21T03:19:53.713Z,79.75
2018-04-21T03:20:53.700Z,79.85
2018-04-21T03:21:53.683Z,79.95
2018-04-21T03:22:53.668Z,80.04
2018-04-21T03:23:53.653Z,80.04
2018-04-21T03:24:53.638Z,80.04
2018-04-21T03:25:53.660Z,80.04
2018-04-21T03:26:53.623Z,80.62
2018-04-21T03:27:53.597Z,80.52
2018-04-21T03:28:53.585Z,80.62
2018-04-21T03:29:53.571Z,80.43
2018-04-21T03:30:53.557Z,80.81
2018-04-21T03:31:53.556Z,80.33
2018-04-21T03:32:53.529Z,80.52
2018-04-21T03:33:53.514Z,80.81
2018-04-21T03:34:53.501Z,81.20
2018-04-21T03:35:53.497Z,81.20
2018-04-21T03:36:53.473Z,81.05
2018-04-21T03:37:53.458Z,81.05
2018-04-21T03:38:53.453Z,81.63
2018-04-21T03:39:53.452Z,81.73
2018-04-21T03:40:53.419Z,81.54
2018-04-21T03:41:53.402Z,81.92
2018-04-21T03:42:53.388Z,81.82
2018-04-21T03:43:53.381Z,81.73
2018-04-21T03:44:53.362Z,81.82
2018-04-21T03:45:53.350Z,81.73
2018-04-21T03:46:53.332Z,81.63
2018-04-21T03:47:53.319Z,81.63
2018-04-21T03:48:53.310Z,81.34
2018-04-21T03:49:53.293Z,81.73
2018-04-21T03:50:53.283Z,81.73
2018-04-21T03:51:53.265Z,82.30
2018-04-21T03:52:53.251Z,82.30
2018-04-21T03:53:53.239Z,82.11
2018-04-21T03:54:53.301Z,81.92
2018-04-21T03:55:53.211Z,82.20
2018-04-21T03:56:53.194Z,82.01
2018-04-21T03:57:53.234Z,82.30
2018-04-21T03:58:53.168Z,82.11
2018-04-21T03:59:53.149Z,82.01
2018-04-21T04:00:53.139Z,81.92
2018-04-21T04:01:53.122Z,82.59
2018-04-21T04:02:53.114Z,82.49
2018-04-21T04:03:53.098Z,82.59
2018-04-21T04:04:53.079Z,83.16
2018-04-21T04:05:53.074Z,82.74
2018-04-21T04:06:53.061Z,82.97
2018-04-21T04:07:53.157Z,82.97
2018-04-21T04:08:53.027Z,83.12
2018-04-21T04:09:53.017Z,83.03
2018-04-21T04:10:52.996Z,83.22
2018-04-21T04:11:52.982Z,83.31
2018-04-21T04:12:52.969Z,83.22
2018-04-21T04:13:52.952Z,83.03
2018-04-21T04:14:52.939Z,83.79
2018-04-21T04:15:52.925Z,83.50
2018-04-21T04:16:52.911Z,83.40
2018-04-21T04:17:52.897Z,83.89
2018-04-21T04:18:52.893Z,83.69
2018-04-21T04:19:52.869Z,83.79
2018-04-21T04:20:52.864Z,83.89
2018-04-21T04:21:52.891Z,84.27
2018-04-21T04:22:52.826Z,83.79
2018-04-21T04:23:52.820Z,83.79
2018-04-21T04:24:52.795Z,84.17
2018-04-21T04:25:52.903Z,84.17
2018-04-21T04:26:52.768Z,83.79
2018-04-21T04:27:52.755Z,84.17
2018-04-21T04:28:52.802Z,84.75
2018-04-21T04:29:52.725Z,84.75
2018-04-21T04:30:52.713Z,84.08
2018-04-21T04:31:52.695Z,83.79
2018-04-21T04:32:52.680Z,83.60
2018-04-21T04:33:52.672Z,83.69
2018-04-21T04:34:52.654Z,84.84
2018-04-21T04:35:52.636Z,84.36
2018-04-21T04:36:52.625Z,84.75
2018-04-21T04:37:52.609Z,84.75
2018-04-21T04:38:52.593Z,84.89
2018-04-21T04:39:52.594Z,84.89
2018-04-21T04:40:52.565Z,85.94
2018-04-21T04:41:52.671Z,85.28
2018-04-21T04:42:52.536Z,85.28
2018-04-21T04:43:52.523Z,85.09
2018-04-21T04:44:52.529Z,85.28
2018-04-21T04:45:52.494Z,85.38
2018-04-21T04:46:52.480Z,85.18
2018-04-21T04:47:52.463Z,85.09
2018-04-21T04:48:52.447Z,85.94
2018-04-21T04:49:52.433Z,85.75
2018-04-21T04:50:52.427Z,85.47
2018-04-21T04:51:52.404Z,85.85
2018-04-21T04:52:52.392Z,85.57
2018-04-21T04:53:52.376Z,85.09
2018-04-21T04:54:52.380Z,84.89
2018-04-21T04:55:52.348Z,85.47
2018-04-21T04:56:52.342Z,85.94
2018-04-21T04:57:52.317Z,85.85
2018-04-21T04:58:52.307Z,85.75
2018-04-21T04:59:52.293Z,85.85
2018-04-21T05:00:52.413Z,85.75
2018-04-21T05:01:52.262Z,85.57
2018-04-21T05:02:52.244Z,85.75
2018-04-21T05:03:52.237Z,85.57
2018-04-21T05:04:52.221Z,85.38
2018-04-21T05:05:52.202Z,85.85
2018-04-21T05:06:52.187Z,85.66
2018-04-21T05:07:52.231Z,85.28
2018-04-21T05:08:52.161Z,85.47
2018-04-21T05:09:52.144Z,85.38
2018-04-21T05:10:52.131Z,84.89
2018-04-21T05:11:52.116Z,84.89
2018-04-21T05:12:52.099Z,85.28
2018-04-21T05:13:52.101Z,85.28
2018-04-21T05:14:52.071Z,84.99
2018-04-21T05:15:52.059Z,84.89
2018-04-21T05:16:52.043Z,85.09
2018-04-21T05:17:52.032Z,84.89
2018-04-21T05:18:52.017Z,84.61
2018-04-21T05:19:52.000Z,84.52
2018-04-21T05:20:51.994Z,84.23
2018-04-21T05:21:52.025Z,84.32
2018-04-21T05:22:51.982Z,84.32
2018-04-21T05:23:51.941Z,84.61
2018-04-21T05:24:51.943Z,84.61
2018-04-21T05:25:51.911Z,84.61
2018-04-21T05:26:51.899Z,84.32
2018-04-21T05:27:51.888Z,84.61
2018-04-21T05:28:51.878Z,84.42
2018-04-21T05:29:51.854Z,84.32
2018-04-21T05:30:51.898Z,84.23
2018-04-21T05:31:51.829Z,83.79
2018-04-21T05:32:51.820Z,83.79
2018-04-21T05:33:51.833Z,83.69
2018-04-21T05:34:51.784Z,83.69
2018-04-21T05:35:51.807Z,82.59
2018-04-21T05:36:51.758Z,81.20
2018-04-21T05:37:51.741Z,79.95
2018-04-21T05:38:51.732Z,79.66
2018-04-21T05:39:51.719Z,78.84
2018-04-21T05:40:51.700Z,77.69
2018-04-21T05:41:51.688Z,77.21
2018-04-21T05:42:51.687Z,76.19
2018-04-21T05:43:51.657Z,76.10
2018-04-21T05:44:51.663Z,75.43
2018-04-21T05:45:51.637Z,74.95
2018-04-21T05:46:51.635Z,75.08
2018-04-21T05:47:51.606Z,73.45
2018-04-21T05:48:51.592Z,74.22
2018-04-21T05:49:51.588Z,73.99
2018-04-21T05:50:51.568Z,73.35
2018-04-21T05:51:51.557Z,72.20
2018-04-21T05:52:51.546Z,72.39
2018-04-21T05:53:51.538Z,71.92
2018-04-21T05:54:51.519Z,72.11
2018-04-21T05:55:51.508Z,72.20
2018-04-21T05:56:51.504Z,72.30
2018-04-21T05:57:51.480Z,72.97
2018-04-21T05:58:51.475Z,73.07
2018-04-21T05:59:51.458Z,71.53
2018-04-21T06:00:51.456Z,71.92
2018-04-21T06:01:51.445Z,71.63
2018-04-21T06:02:51.427Z,71.37
2018-04-21T06:03:51.500Z,70.51
2018-04-21T06:04:51.411Z,71.09
2018-04-21T06:05:51.390Z,70.70
2018-04-21T06:06:51.381Z,70.42
2018-04-21T06:07:51.384Z,70.42
2018-04-21T06:08:51.358Z,70.61
2018-04-21T06:09:51.348Z,70.23
2018-04-21T06:10:51.338Z,70.51
2018-04-21T06:11:51.326Z,69.46
2018-04-21T06:12:51.323Z,70.90
2018-04-21T06:13:51.331Z,70.99
2018-04-21T06:14:51.296Z,70.70
2018-04-21T06:15:51.313Z,70.61
2018-04-21T06:16:51.275Z,69.84
2018-04-21T06:17:51.271Z,70.64
2018-04-21T06:18:51.252Z,70.03
2018-04-21T06:19:51.243Z,68.63
2018-04-21T06:20:51.257Z,69.11
2018-04-21T06:21:51.223Z,68.37
2018-04-21T06:22:51.217Z,66.84
2018-04-21T06:23:51.208Z,68.44
2018-04-21T06:24:51.201Z,68.44
2018-04-21T06:25:51.183Z,68.53
2018-04-21T06:26:51.173Z,67.67
2018-04-21T06:27:51.165Z,67.67
2018-04-21T06:28:51.159Z,67.96
2018-04-21T06:29:51.154Z,68.91
2018-04-21T06:30:51.136Z,69.01
2018-04-21T06:31:51.128Z,68.53
2018-04-21T06:32:51.127Z,69.11
2018-04-21T06:33:51.106Z,68.63
2018-04-21T06:34:51.111Z,68.53
2018-04-21T06:35:51.101Z,68.34
2018-04-21T06:36:51.181Z,68.98
2018-04-21T06:37:51.089Z,69.20
2018-04-21T06:38:51.065Z,68.82
2018-04-21T06:39:51.061Z,69.20
2018-04-21T06:40:51.048Z,68.63
2018-04-21T06:41:51.049Z,68.91
2018-04-21T06:42:51.036Z,68.63
2018-04-21T06:43:51.024Z,69.01
2018-04-21T06:44:51.021Z,68.24
2018-04-21T06:45:51.030Z,68.59
2018-04-21T06:46:51.002Z,69.49
2018-04-21T06:47:50.983Z,68.15
2018-04-21T06:48:50.983Z,68.44
2018-04-21T06:49:50.966Z,68.53
2018-04-21T06:50:50.962Z,68.82
2018-04-21T06:51:50.962Z,69.49
2018-04-21T06:52:50.942Z,69.07
2018-04-21T06:53:50.926Z,68.63
2018-04-21T06:54:50.922Z,68.44
2018-04-21T06:55:50.910Z,68.50
2018-04-21T06:56:50.901Z,69.07
2018-04-21T06:57:50.892Z,68.88
2018-04-21T06:58:50.881Z,68.50
2018-04-21T06:59:50.878Z,68.98
2018-04-21T07:00:50.861Z,69.46
2018-04-21T07:01:50.849Z,68.79
2018-04-21T07:02:50.849Z,68.98
2018-04-21T07:03:50.836Z,69.07
2018-04-21T07:04:50.830Z,68.88
2018-04-21T07:05:50.816Z,69.26
2018-04-21T07:06:50.801Z,69.26
2018-04-21T07:07:50.799Z,69.65
2018-04-21T07:08:50.779Z,68.63
2018-04-21T07:09:50.773Z,68.91
2018-04-21T07:10:50.757Z,68.34
2018-04-21T07:11:50.760Z,68.82
2018-04-21T07:12:50.744Z,68.44
2018-04-21T07:13:50.833Z,68.53
2018-04-21T07:14:50.721Z,67.61
2018-04-21T07:15:50.711Z,67.70
2018-04-21T07:16:50.698Z,67.41
2018-04-21T07:17:50.686Z,67.47
2018-04-21T07:18:50.686Z,67.96
2018-04-21T07:19:50.667Z,67.61
2018-04-21T07:20:50.656Z,67.22
2018-04-21T07:21:50.653Z,66.00
2018-04-21T07:22:50.639Z,66.20
2018-04-21T07:23:50.623Z,67.64
2018-04-21T07:24:50.616Z,65.81
2018-04-21T07:25:50.601Z,65.91
2018-04-21T07:26:50.592Z,65.43
2018-04-21T07:27:50.579Z,65.14
2018-04-21T07:28:50.575Z,65.05
2018-04-21T07:29:50.572Z,64.31
2018-04-21T07:30:50.564Z,64.12
2018-04-21T07:31:50.546Z,64.40
2018-04-21T07:32:50.535Z,64.02
2018-04-21T07:33:50.520Z,63.73
2018-04-21T07:34:50.509Z,67.29
2018-04-21T07:35:50.525Z,65.27
2018-04-21T07:36:50.501Z,64.98
2018-04-21T07:37:50.490Z,65.27
2018-04-21T07:38:50.474Z,65.94
2018-04-21T07:39:50.477Z,64.98
2018-04-21T07:40:50.453Z,66.39
2018-04-21T07:41:50.444Z,66.58
2018-04-21T07:42:50.452Z,64.98
2018-04-21T07:43:50.426Z,68.44
2018-04-21T07:44:50.413Z,66.23
2018-04-21T07:45:50.407Z,64.12
2018-04-21T07:46:50.413Z,65.01
2018-04-21T07:47:50.413Z,63.38
2018-04-21T07:48:50.376Z,63.73
2018-04-21T07:49:50.366Z,64.60
2018-04-21T07:50:50.358Z,64.60
2018-04-21T07:51:50.345Z,64.31
2018-04-21T07:52:50.342Z,63.86
2018-04-21T07:53:50.377Z,64.34
2018-04-21T07:54:50.326Z,64.82
2018-04-21T07:55:50.312Z,65.30
2018-04-21T07:56:50.325Z,65.40
2018-04-21T07:57:50.296Z,65.59
2018-04-21T07:58:50.292Z,64.05
2018-04-21T07:59:50.278Z,63.12
2018-04-21T08:00:50.276Z,62.93
2018-04-21T08:01:50.280Z,64.43
2018-04-21T08:02:50.252Z,64.25
2018-04-21T08:03:50.251Z,63.76
2018-04-21T08:04:50.240Z,64.53
2018-04-21T08:05:50.243Z,64.43
2018-04-21T08:06:50.234Z,64.05
2018-04-21T08:07:50.213Z,64.05
2018-04-21T08:08:50.201Z,64.25
2018-04-21T08:09:50.194Z,64.43
2018-04-21T08:10:50.181Z,64.15
2018-04-21T08:11:50.181Z,64.15
2018-04-21T08:12:50.196Z,64.25
2018-04-21T08:13:50.156Z,64.92
2018-04-21T08:14:50.146Z,64.15
2018-04-21T08:15:50.158Z,63.89
2018-04-21T08:16:50.140Z,63.70
2018-04-21T08:17:50.138Z,63.89
2018-04-21T08:18:50.114Z,63.60
2018-04-21T08:19:50.105Z,63.76
2018-04-21T08:20:50.108Z,63.95
2018-04-21T08:21:50.095Z,63.79
2018-04-21T08:22:50.081Z,64.02
2018-04-21T08:23:50.075Z,64.50
2018-04-21T08:24:50.063Z,63.95
2018-04-21T08:25:50.152Z,63.28
2018-04-21T08:26:50.050Z,62.83
2018-04-21T08:27:50.040Z,62.26
2018-04-21T08:28:50.084Z,62.06
2018-04-21T08:29:50.023Z,62.64
2018-04-21T08:30:50.018Z,62.16
2018-04-21T08:31:50.015Z,62.16
2018-04-21T08:32:49.998Z,63.02
2018-04-21T08:33:50.006Z,63.02
2018-04-21T08:34:49.979Z,62.45
2018-04-21T08:35:49.981Z,62.00
2018-04-21T08:36:49.967Z,62.09
2018-04-21T08:37:49.984Z,60.46
2018-04-21T08:38:49.946Z,61.77
2018-04-21T08:39:49.938Z,62.54
2018-04-21T08:40:49.934Z,62.64
2018-04-21T08:41:49.928Z,62.38
2018-04-21T08:42:49.912Z,61.52
2018-04-21T08:43:49.901Z,61.58
2018-04-21T08:44:49.896Z,61.77
2018-04-21T08:45:49.898Z,62.64
2018-04-21T08:46:49.986Z,62.06
2018-04-21T08:47:49.867Z,61.49
2018-04-21T08:48:49.858Z,61.58
2018-04-21T08:49:49.845Z,60.81
2018-04-21T08:50:49.837Z,60.65
2018-04-21T08:51:49.831Z,60.36
2018-04-21T08:52:49.828Z,60.27
2018-04-21T08:53:49.823Z,60.27
2018-04-21T08:54:49.805Z,60.17
2018-04-21T08:55:49.891Z,60.17
2018-04-21T08:56:49.785Z,60.27
2018-04-21T08:57:49.780Z,59.97
2018-04-21T08:58:49.832Z,59.72
2018-04-21T08:59:49.764Z,59.33
2018-04-21T09:00:49.758Z,59.17
2018-04-21T09:01:49.746Z,58.01
2018-04-21T09:02:49.744Z,58.20
2018-04-21T09:03:49.725Z,57.92
2018-04-21T09:04:49.717Z,57.07
2018-04-21T09:05:49.715Z,57.17
2018-04-21T09:06:49.709Z,57.07
2018-04-21T09:07:49.690Z,56.69
2018-04-21T09:08:49.791Z,56.72
2018-04-21T09:09:49.680Z,55.46
2018-04-21T09:10:49.663Z,55.78
2018-04-21T09:11:49.657Z,54.72
2018-04-21T09:12:49.647Z,54.82
2018-04-21T09:13:49.639Z,54.62
2018-04-21T09:14:49.631Z,54.72
2018-04-21T09:15:49.644Z,55.36
2018-04-21T09:16:49.614Z,55.85
2018-04-21T09:17:49.610Z,56.40
2018-04-21T09:18:49.597Z,56.49
2018-04-21T09:19:49.596Z,56.49
2018-04-21T09:20:49.583Z,56.59
2018-04-21T09:21:49.589Z,56.66
2018-04-21T09:22:49.567Z,57.37
2018-04-21T09:23:49.556Z,56.72
2018-04-21T09:24:49.552Z,55.56
2018-04-21T09:25:49.551Z,55.27
2018-04-21T09:26:49.532Z,55.30
2018-04-21T09:27:49.525Z,54.72
2018-04-21T09:28:49.516Z,54.43
2018-04-21T09:29:49.517Z,55.46
2018-04-21T09:30:49.502Z,55.40
2018-04-21T09:31:49.495Z,54.72
2018-04-21T09:32:49.495Z,54.17
2018-04-21T09:33:49.494Z,53.59
2018-04-21T09:34:49.469Z,52.84
2018-04-21T09:35:49.465Z,52.65
2018-04-21T09:36:49.459Z,53.39
2018-04-21T09:37:49.454Z,53.03
2018-04-21T09:38:49.456Z,52.75
2018-04-21T09:39:49.441Z,52.45
2018-04-21T09:40:49.445Z,52.00
2018-04-21T09:41:49.453Z,50.76
2018-04-21T09:42:49.428Z,50.76
2018-04-21T09:43:49.428Z,51.13
2018-04-21T09:44:49.430Z,51.25
2018-04-21T09:45:49.427Z,49.54
2018-04-21T09:46:49.419Z,49.10
2018-04-21T09:47:49.426Z,48.42
2018-04-21T09:48:49.423Z,47.64
2018-04-21T09:49:49.420Z,48.01
2018-04-21T09:50:49.410Z,47.94
2018-04-21T09:51:49.411Z,47.64
2018-04-21T09:52:49.408Z,46.80
2018-04-21T09:53:49.415Z,45.56
2018-04-21T09:54:49.416Z,46.04
2018-04-21T09:55:49.411Z,46.09
2018-04-21T09:56:49.411Z,48.20
2018-04-21T09:57:49.405Z,48.32
2018-04-21T09:58:49.410Z,47.74
2018-04-21T09:59:49.512Z,46.48
2018-04-21T10:00:49.416Z,46.31
2018-04-21T10:01:49.409Z,46.04
2018-04-21T10:02:49.417Z,46.04
2018-04-21T10:03:49.421Z,45.85
2018-04-21T10:04:49.422Z,46.22
2018-04-21T10:05:49.418Z,45.85
2018-04-21T10:06:49.421Z,45.68
2018-04-21T10:07:49.427Z,44.81
2018-04-21T10:08:49.421Z,44.71
2018-04-21T10:09:49.428Z,44.59
2018-04-21T10:10:49.427Z,44.78
2018-04-21T10:11:49.436Z,45.37
2018-04-21T10:12:49.439Z,45.47
2018-04-21T10:13:49.436Z,45.85
2018-04-21T10:14:49.472Z,45.17
2018-04-21T10:15:49.446Z,45.10
2018-04-21T10:16:49.441Z,44.71
2018-04-21T10:17:49.445Z,44.42
2018-04-21T10:18:49.445Z,44.59
2018-04-21T10:19:49.450Z,44.13
2018-04-21T10:20:49.457Z,44.05
2018-04-21T10:21:49.465Z,43.86
2018-04-21T10:22:49.473Z,43.66
2018-04-21T10:23:49.465Z,43.84
2018-04-21T10:24:49.506Z,44.32
2018-04-21T10:25:49.467Z,43.93
2018-04-21T10:26:49.476Z,44.32
2018-04-21T10:27:49.482Z,43.66
2018-04-21T10:28:49.480Z,43.35
2018-04-21T10:29:49.486Z,43.74
2018-04-21T10:30:49.496Z,43.93
2018-04-21T10:31:49.495Z,43.06
2018-04-21T10:32:49.498Z,43.26
2018-04-21T10:33:49.495Z,43.27
2018-04-21T10:34:49.506Z,43.10
2018-04-21T10:35:49.508Z,43.01
2018-04-21T10:36:49.512Z,42.89
2018-04-21T10:37:49.514Z,43.01
2018-04-21T10:38:49.585Z,43.10
2018-04-21T10:39:49.523Z,42.79
2018-04-21T10:40:49.531Z,43.76
2018-04-21T10:41:49.531Z,43.35
2018-04-21T10:42:49.532Z,43.08
2018-04-21T10:43:49.536Z,43.01
2018-04-21T10:44:49.543Z,41.94
2018-04-21T10:45:49.598Z,42.13
2018-04-21T10:46:49.548Z,41.74
2018-04-21T10:47:49.554Z,42.52
2018-04-21T10:48:49.556Z,42.23
2018-04-21T10:49:49.570Z,42.23
2018-04-21T10:50:49.717Z,41.84
2018-04-21T10:51:49.577Z,41.63
2018-04-21T10:52:49.581Z,42.03
2018-04-21T10:53:49.585Z,41.64
2018-04-21T10:54:49.585Z,41.74
2018-04-21T10:55:49.588Z,41.74
2018-04-21T10:56:49.590Z,41.92
2018-04-21T10:57:49.609Z,42.69
2018-04-21T10:58:49.609Z,42.60
2018-04-21T10:59:49.616Z,43.52
2018-04-21T11:00:49.615Z,43.72
2018-04-21T11:01:49.620Z,42.96
2018-04-21T11:02:49.637Z,43.79
2018-04-21T11:03:49.662Z,44.68
2018-04-21T11:04:49.626Z,44.30
2018-04-21T11:05:49.625Z,43.74
2018-04-21T11:06:49.635Z,43.08
2018-04-21T11:07:49.664Z,42.40
2018-04-21T11:08:49.654Z,41.74
2018-04-21T11:09:49.716Z,41.74
2018-04-21T11:10:49.651Z,41.36
2018-04-21T11:11:49.651Z,41.06
2018-04-21T11:12:49.654Z,41.63
2018-04-21T11:13:49.678Z,41.45
2018-04-21T11:14:49.679Z,41.06
2018-04-21T11:15:49.669Z,40.50
2018-04-21T11:16:49.681Z,40.41
2018-04-21T11:17:49.687Z,39.61
2018-04-21T11:18:49.689Z,40.48
2018-04-21T11:19:49.698Z,40.19
2018-04-21T11:20:49.691Z,40.58
2018-04-21T11:21:49.706Z,40.77
2018-04-21T11:22:49.759Z,40.67
2018-04-21T11:23:49.707Z,40.56
2018-04-21T11:24:49.772Z,40.95
2018-04-21T11:25:49.711Z,40.75
2018-04-21T11:26:49.724Z,41.05
2018-04-21T11:27:49.721Z,40.77
2018-04-21T11:28:49.728Z,41.14
2018-04-21T11:29:49.732Z,41.06
2018-04-21T11:30:49.755Z,40.21
2018-04-21T11:31:49.751Z,40.29
2018-04-21T11:32:49.749Z,40.26
2018-04-21T11:33:49.752Z,41.51
2018-04-21T11:34:49.769Z,41.24
2018-04-21T11:35:49.758Z,41.05
2018-04-21T11:36:49.770Z,41.06
2018-04-21T11:37:49.771Z,40.46
2018-04-21T11:38:49.776Z,40.66
2018-04-21T11:39:49.772Z,40.85
2018-04-21T11:40:49.777Z,40.46
2018-04-21T11:41:49.777Z,39.78
2018-04-21T11:42:49.786Z,39.78
2018-04-21T11:43:49.786Z,40.36
2018-04-21T11:44:49.791Z,39.39
2018-04-21T11:45:49.790Z,39.29
2018-04-21T11:46:49.795Z,39.59
2018-04-21T11:47:49.805Z,39.20
2018-04-21T11:48:49.813Z,39.08
2018-04-21T11:49:49.816Z,39.59
2018-04-21T11:50:49.805Z,39.29
2018-04-21T11:51:49.816Z,39.28
2018-04-21T11:52:49.832Z,39.69
2018-04-21T11:53:49.807Z,39.39
2018-04-21T11:54:49.808Z,39.59
2018-04-21T11:55:49.816Z,39.67
2018-04-21T11:56:49.810Z,39.78
2018-04-21T11:57:49.808Z,39.51
2018-04-21T11:58:49.808Z,38.83
2018-04-21T11:59:49.815Z,38.64
2018-04-21T12:00:49.821Z,37.96
2018-04-21T12:01:49.932Z,38.44
2018-04-21T12:02:49.821Z,38.54
2018-04-21T12:03:49.816Z,39.18
2018-04-21T12:04:49.813Z,40.42
2018-04-21T12:05:49.805Z,40.13
2018-04-21T12:06:49.805Z,40.52
2018-04-21T12:07:49.814Z,41.27
2018-04-21T12:08:49.818Z,41.83
2018-04-21T12:09:49.798Z,42.32
2018-04-21T12:10:49.915Z,42.13
2018-04-21T12:11:49.793Z,41.35
2018-04-21T12:12:49.792Z,41.93
2018-04-21T12:13:49.800Z,41.93
2018-04-21T12:14:49.792Z,42.13
2018-04-21T12:15:49.791Z,41.82
2018-04-21T12:16:49.783Z,41.79
2018-04-21T12:17:49.773Z,42.08
2018-04-21T12:18:49.766Z,41.70
2018-04-21T12:19:49.780Z,41.31
2018-04-21T12:20:49.901Z,41.82
2018-04-21T12:21:49.759Z,40.92
2018-04-21T12:22:49.756Z,41.50
2018-04-21T12:23:49.747Z,41.41
2018-04-21T12:24:49.757Z,42.00
2018-04-21T12:25:49.736Z,41.72
2018-04-21T12:26:49.732Z,41.62
2018-04-21T12:27:49.726Z,41.82
2018-04-21T12:28:49.740Z,41.83
2018-04-21T12:29:49.724Z,41.64
2018-04-21T12:30:49.712Z,42.00
2018-04-21T12:31:49.702Z,41.72
2018-04-21T12:32:49.703Z,42.20
2018-04-21T12:33:49.693Z,42.08
2018-04-21T12:34:49.684Z,42.28
2018-04-21T12:35:49.681Z,41.79
2018-04-21T12:36:49.683Z,42.07
2018-04-21T12:37:49.677Z,42.35
2018-04-21T12:38:49.868Z,41.58
2018-04-21T12:39:49.664Z,41.87
2018-04-21T12:40:49.649Z,42.45
2018-04-21T12:41:49.690Z,42.57
2018-04-21T12:42:49.639Z,41.79
2018-04-21T12:43:49.641Z,41.60
2018-04-21T12:44:49.623Z,42.10
2018-04-21T12:45:49.646Z,41.72
2018-04-21T12:46:49.607Z,41.82
2018-04-21T12:47:49.609Z,41.91
2018-04-21T12:48:49.599Z,42.00
2018-04-21T12:49:49.592Z,41.31
2018-04-21T12:50:49.589Z,41.50
2018-04-21T12:51:49.578Z,42.18
2018-04-21T12:52:49.581Z,41.97